Time;durP1;ratioP1;P1;durP2;ratioP2;P2;SDS_P1;SDS_P2;PMS_P1;PMS_P2;Temp;Humidity;BMP_temperature;BMP_pressure;BME280_temperature;BME280_humidity;BME280_pressure;Samples;Min_cycle;Max_cycle;Signal;HPM_P1;HPM_P2
2022/05/16 00:02:06;;;;;;;9.52;5.03;;;;;;;12.85;64.30;100026.56;5098372;28;20051;-83
2022/05/16 00:04:32;;;;;;;9.98;4.88;;;;;;;12.83;64.64;100017.09;5097290;28;20474;-83
2022/05/16 00:06:57;;;;;;;7.80;4.38;;;;;;;12.75;64.46;100022.72;5098427;28;20111;-83
2022/05/16 00:09:23;;;;;;;8.23;4.00;;;;;;;12.79;64.37;100023.41;5098592;28;20418;-83
2022/05/16 00:11:48;;;;;;;8.77;4.25;;;;;;;12.71;64.24;100024.63;5098240;28;20020;-83
2022/05/16 00:14:14;;;;;;;10.93;4.35;;;;;;;12.64;64.52;100017.16;5097090;28;20028;-83
2022/05/16 00:16:39;;;;;;;8.20;4.47;;;;;;;12.57;64.78;100010.56;5098866;28;20060;-83
2022/05/16 00:19:05;;;;;;;9.40;4.07;;;;;;;12.52;64.99;100013.41;5098245;28;20031;-83
2022/05/16 00:21:31;;;;;;;6.40;3.92;;;;;;;12.51;64.96;100027.34;5097125;28;20476;-83
2022/05/16 00:23:57;;;;;;;6.82;4.18;;;;;;;12.56;65.25;100032.38;5098047;28;20081;-83
2022/05/16 00:26:22;;;;;;;6.47;3.88;;;;;;;12.43;65.45;100021.66;5098211;28;20095;-83
2022/05/16 00:28:48;;;;;;;8.45;3.97;;;;;;;12.30;65.55;100013.56;5096923;28;20111;-83
2022/05/16 00:31:13;;;;;;;7.18;3.97;;;;;;;12.40;65.79;100027.06;5097053;28;20028;-83
2022/05/16 00:33:39;;;;;;;8.32;4.47;;;;;;;12.34;66.02;100043.00;5097009;28;20073;-83
2022/05/16 00:36:04;;;;;;;7.95;3.90;;;;;;;12.28;65.64;100025.88;5098080;28;20024;-83
2022/05/16 00:38:30;;;;;;;9.07;4.10;;;;;;;12.27;65.92;100024.19;5097990;28;20598;-83
2022/05/16 00:40:59;;;;;;;7.85;4.20;;;;;;;12.24;66.30;100027.78;5096508;28;20044;-83
2022/05/16 00:43:44;;;;;;;9.90;4.10;;;;;;;12.15;66.54;100015.16;5098181;28;20039;-83
2022/05/16 00:46:11;;;;;;;8.13;4.60;;;;;;;12.10;66.71;100013.69;5096555;28;20028;-83
2022/05/16 00:48:36;;;;;;;8.35;4.05;;;;;;;12.13;67.01;100024.81;5096813;28;20076;-83
2022/05/16 00:51:04;;;;;;;8.13;4.15;;;;;;;12.16;66.90;100037.72;5096556;28;20063;-83
2022/05/16 00:53:30;;;;;;;8.00;4.00;;;;;;;12.14;66.89;100031.75;5096694;28;20032;-83
2022/05/16 00:55:55;;;;;;;6.55;3.63;;;;;;;12.08;66.84;100018.13;5096618;28;20097;-83
2022/05/16 00:58:20;;;;;;;6.10;3.55;;;;;;;12.08;66.62;100012.91;5097761;28;20119;-83
2022/05/16 01:00:48;;;;;;;5.10;3.58;;;;;;;12.14;66.47;100029.13;5096674;28;20434;-83
2022/05/16 01:06:03;;;;;;;7.20;3.85;;;;;;;12.12;67.13;100033.56;5094733;28;20108;-83
2022/05/16 01:08:32;;;;;;;10.07;4.05;;;;;;;12.15;66.62;100027.38;5093357;28;20036;-83
2022/05/16 01:11:06;;;;;;;8.38;3.80;;;;;;;12.11;66.88;100037.09;5094426;28;20020;-83
2022/05/16 01:13:32;;;;;;;9.25;4.15;;;;;;;12.07;67.08;100035.56;5094535;28;20028;-83
2022/05/16 01:15:59;;;;;;;12.35;4.18;;;;;;;12.07;67.21;100034.72;5092859;28;20400;-83
2022/05/16 01:18:26;;;;;;;9.60;4.43;;;;;;;12.00;67.22;100026.31;5094433;28;20081;-83
2022/05/16 01:21:10;;;;;;;7.80;3.90;;;;;;;12.06;67.42;100054.75;5094146;28;20385;-84
2022/05/16 01:23:51;;;;;;;9.93;4.00;;;;;;;11.96;67.21;100037.81;5093156;28;20036;-83
2022/05/16 01:26:20;;;;;;;6.45;3.83;;;;;;;12.03;67.37;100059.25;5094389;28;20020;-83
2022/05/16 01:28:45;;;;;;;11.57;3.83;;;;;;;12.00;67.57;100057.63;5094314;28;20038;-83
2022/05/16 01:31:11;;;;;;;5.95;3.67;;;;;;;11.92;67.79;100041.47;5094221;28;20107;-83
2022/05/16 01:33:36;;;;;;;8.63;4.13;;;;;;;11.93;67.90;100048.41;5094483;28;20484;-83
2022/05/16 01:36:02;;;;;;;9.52;4.50;;;;;;;11.87;68.34;100048.66;5092727;28;20031;-83
2022/05/16 01:38:29;;;;;;;7.50;3.90;;;;;;;11.90;68.26;100059.81;5092843;28;20090;-83
2022/05/16 01:40:58;;;;;;;7.88;4.22;;;;;;;11.82;68.42;100037.56;5093824;28;20106;-84
2022/05/16 01:43:33;;;;;;;14.10;4.10;;;;;;;11.85;68.53;100055.75;5092489;28;20028;-83
2022/05/16 01:45:59;;;;;;;7.03;3.80;;;;;;;11.85;68.71;100051.38;5092486;28;20027;-84
2022/05/16 01:48:25;;;;;;;8.80;3.95;;;;;;;11.80;68.62;100047.22;5093998;28;20052;-83
2022/05/16 01:50:58;;;;;;;7.47;3.88;;;;;;;11.81;68.70;100056.75;5057820;28;20408;-83
2022/05/16 01:53:23;;;;;;;8.90;4.10;;;;;;;11.79;68.71;100045.53;5093642;28;20103;-83
2022/05/16 01:55:49;;;;;;;10.52;4.10;;;;;;;11.78;68.98;100044.69;5092389;28;20028;-83
2022/05/16 01:58:15;;;;;;;7.88;4.13;;;;;;;11.80;68.84;100066.34;5092006;28;20115;-83
2022/05/16 02:00:40;;;;;;;10.32;4.00;;;;;;;11.76;69.08;100059.59;5093897;28;20086;-84
2022/05/16 02:03:06;;;;;;;10.88;4.57;;;;;;;11.73;69.05;100063.16;5092292;28;20032;-83
2022/05/16 02:05:32;;;;;;;9.90;4.43;;;;;;;11.67;69.03;100046.91;5093775;28;20056;-83
2022/05/16 02:07:57;;;;;;;5.75;3.40;;;;;;;11.72;69.00;100065.84;5092264;28;20554;-83
2022/05/16 02:10:25;;;;;;;7.57;3.95;;;;;;;11.69;69.16;100060.75;5092398;28;20024;-83
2022/05/16 02:12:52;;;;;;;10.20;4.07;;;;;;;11.67;69.19;100054.75;5092236;28;20078;-84
2022/05/16 02:15:20;;;;;;;8.98;4.00;;;;;;;11.61;69.10;100049.81;5092045;28;20027;-83
2022/05/16 02:17:46;;;;;;;5.68;3.85;;;;;;;11.64;68.74;100060.13;5092095;28;20434;-83
2022/05/16 02:20:13;;;;;;;9.07;3.83;;;;;;;11.60;68.92;100046.38;5091880;28;20028;-83
2022/05/16 02:25:22;;;;;;;9.25;3.63;;;;;;;11.51;68.95;100046.78;5093485;28;20127;-83
2022/05/16 02:27:49;;;;;;;7.82;3.67;;;;;;;11.61;68.61;100060.25;5092050;28;20123;-83
2022/05/16 02:30:16;;;;;;;7.55;4.00;;;;;;;11.60;68.67;100053.34;5093050;28;20024;-83
2022/05/16 02:32:42;;;;;;;7.63;3.97;;;;;;;11.58;68.68;100063.84;5093414;28;20028;-83
2022/05/16 02:35:08;;;;;;;7.05;4.15;;;;;;;11.57;68.81;100059.53;5092833;28;20488;-83
2022/05/16 02:37:33;;;;;;;8.07;3.75;;;;;;;11.56;68.65;100054.41;5091634;28;20108;-83
2022/05/16 02:39:59;;;;;;;7.78;3.42;;;;;;;11.49;68.70;100043.38;5092631;28;20055;-83
2022/05/16 02:42:24;;;;;;;9.50;4.15;;;;;;;11.56;69.00;100062.22;5091629;28;20028;-83
2022/05/16 02:44:52;;;;;;;6.03;3.42;;;;;;;11.54;68.95;100066.66;5092981;28;20030;-83
2022/05/16 02:47:20;;;;;;;5.88;3.40;;;;;;;11.52;69.08;100065.88;5091168;28;20028;-83
2022/05/16 02:49:45;;;;;;;7.53;3.20;;;;;;;11.42;68.91;100045.41;5092853;28;20040;-83
2022/05/16 02:52:11;;;;;;;6.43;3.20;;;;;;;11.51;68.84;100052.00;5091177;28;20089;-82
2022/05/16 02:54:37;;;;;;;4.50;3.42;;;;;;;11.53;69.09;100062.34;5093221;28;20031;-83
2022/05/16 02:57:03;;;;;;;7.47;3.90;;;;;;;11.51;69.27;100052.00;5092660;28;20075;-82
2022/05/16 02:59:32;;;;;;;6.82;3.70;;;;;;;11.49;69.32;100036.38;5092656;28;20035;-83
2022/05/16 03:02:10;;;;;;;6.60;3.40;;;;;;;11.50;69.48;100047.66;5091107;28;20028;-83
2022/05/16 03:04:36;;;;;;;10.20;4.32;;;;;;;11.52;69.73;100045.84;5092561;28;20103;-83
2022/05/16 03:07:02;;;;;;;9.05;4.28;;;;;;;11.50;69.94;100037.22;5090844;28;20053;-82
2022/05/16 03:09:28;;;;;;;7.88;3.88;;;;;;;11.52;70.09;100032.81;5108317;28;20032;-83
2022/05/16 03:11:54;;;;;;;7.32;3.60;;;;;;;11.57;70.38;100033.44;5091200;28;20044;-83
2022/05/16 03:14:20;;;;;;;8.02;3.75;;;;;;;11.59;70.62;100033.41;5092533;28;20115;-83
2022/05/16 03:16:46;;;;;;;7.47;3.60;;;;;;;11.55;71.16;100019.66;5092440;28;20031;-84
2022/05/16 03:19:12;;;;;;;8.18;3.65;;;;;;;11.53;70.99;100020.63;5090785;28;20384;-83
2022/05/16 03:21:38;;;;;;;9.50;3.78;;;;;;;11.59;70.95;100028.19;5092367;28;20031;-83
2022/05/16 03:24:05;;;;;;;8.63;4.10;;;;;;;11.59;70.83;100023.81;5069073;28;20557;-83
2022/05/16 03:26:30;;;;;;;7.05;3.80;;;;;;;11.63;71.01;100027.09;5052038;28;20033;-83
2022/05/16 03:28:55;;;;;;;8.68;3.75;;;;;;;11.60;70.61;100017.66;5069171;28;20071;-83
2022/05/16 03:31:21;;;;;;;5.53;3.47;;;;;;;11.67;70.46;100015.59;5052595;28;20111;-83
2022/05/16 03:33:47;;;;;;;8.23;3.40;;;;;;;11.74;70.51;100019.66;5052401;28;20064;-83
2022/05/16 03:36:13;;;;;;;8.10;3.78;;;;;;;11.71;70.24;100011.94;5028873;28;20037;-83
2022/05/16 03:41:22;;;;;;;6.10;3.40;;;;;;;11.88;69.67;100029.47;5029475;28;20406;-83
2022/05/16 03:43:48;;;;;;;9.02;3.63;;;;;;;11.88;69.59;100025.13;5029099;28;20033;-83
2022/05/16 03:46:13;;;;;;;7.18;3.10;;;;;;;11.93;69.39;100023.16;5029087;28;20034;-83
2022/05/16 03:48:39;;;;;;;12.63;3.35;;;;;;;12.00;69.32;100015.88;5029159;28;20064;-83
2022/05/16 03:51:06;;;;;;;7.45;2.92;;;;;;;12.07;69.20;100019.03;5029018;28;20038;-83
2022/05/16 03:53:32;;;;;;;8.80;3.20;;;;;;;12.15;68.64;100016.94;5029343;28;20044;-83
2022/05/16 03:55:57;;;;;;;7.75;3.20;;;;;;;12.18;68.63;100001.13;5029240;28;20522;-83
2022/05/16 03:58:23;;;;;;;5.93;2.97;;;;;;;12.30;67.79;100013.56;5029241;28;20029;-83
2022/05/16 04:00:48;;;;;;;7.53;3.10;;;;;;;12.44;67.36;100010.31;5033417;28;20183;-83
2022/05/16 04:03:14;;;;;;;7.65;3.58;;;;;;;12.62;67.22;100012.00;5048681;28;20029;-83
2022/05/16 04:05:40;;;;;;;5.45;2.97;;;;;;;12.86;66.65;100014.34;5049140;28;20029;-83
2022/05/16 04:08:07;;;;;;;6.55;2.83;;;;;;;13.32;65.96;100020.72;5085685;28;20051;-83
2022/05/16 04:10:33;;;;;;;7.45;3.10;;;;;;;13.96;63.49;100017.28;5090303;28;20020;-83
2022/05/16 04:12:58;;;;;;;5.50;2.97;;;;;;;14.48;62.14;100018.75;5091359;28;20046;-83
2022/05/16 04:15:25;;;;;;;6.78;2.92;;;;;;;14.68;61.63;100010.63;5089961;28;20028;-83
2022/05/16 04:17:51;;;;;;;5.47;2.95;;;;;;;14.96;60.31;100006.41;5090040;28;20024;-83
2022/05/16 04:20:18;;;;;;;7.97;3.17;;;;;;;15.32;57.68;100020.88;5090172;28;20026;-83
2022/05/16 04:22:44;;;;;;;5.95;2.70;;;;;;;15.56;56.37;100018.56;5090234;28;20032;-83
2022/05/16 04:25:12;;;;;;;6.00;2.72;;;;;;;15.84;54.80;100015.09;5089886;28;20081;-83
2022/05/16 04:27:38;;;;;;;5.00;2.80;;;;;;;16.02;53.26;100027.09;5091431;28;20046;-84
2022/05/16 04:30:05;;;;;;;7.18;2.97;;;;;;;16.30;51.98;100023.53;5089839;28;20473;-83
2022/05/16 04:32:30;;;;;;;8.30;3.13;;;;;;;16.81;51.13;100018.47;5090071;28;20028;-84
2022/05/16 04:34:55;;;;;;;7.18;3.10;;;;;;;17.49;48.47;100035.81;5090407;28;20062;-84
2022/05/16 04:37:21;;;;;;;6.28;3.20;;;;;;;17.82;47.10;100022.06;5091479;28;20407;-83
2022/05/16 04:39:46;;;;;;;8.10;3.50;;;;;;;17.79;47.18;100026.75;5092315;28;20130;-88
2022/05/16 04:44:55;;;;;;;5.85;3.13;;;;;;;18.22;46.96;100028.94;5095157;28;20043;-86
2022/05/16 04:47:21;;;;;;;11.20;3.47;;;;;;;18.57;46.12;100035.09;5093675;28;20028;-86
2022/05/16 04:49:46;;;;;;;9.50;3.38;;;;;;;18.84;45.59;100028.78;5093867;28;20401;-86
2022/05/16 04:52:12;;;;;;;6.72;2.95;;;;;;;19.27;43.83;100039.56;5094841;28;20059;-86
2022/05/16 04:54:40;;;;;;;4.95;2.60;;;;;;;20.37;41.56;100037.97;5095075;28;20047;-86
2022/05/16 04:57:06;;;;;;;6.05;2.80;;;;;;;21.25;38.69;100019.19;5093439;28;20035;-86
2022/05/16 04:59:32;;;;;;;5.85;2.38;;;;;;;21.72;37.11;100032.84;5093459;28;20024;-86
2022/05/16 05:01:58;;;;;;;6.30;2.70;;;;;;;21.76;37.95;100036.06;5093804;28;20362;-86
2022/05/16 05:04:24;;;;;;;4.93;2.60;;;;;;;21.68;37.76;100040.22;5093466;28;20028;-86
2022/05/16 05:06:50;;;;;;;4.47;2.40;;;;;;;21.76;38.04;100030.75;5094865;28;20039;-87
2022/05/16 05:09:15;;;;;;;3.63;2.30;;;;;;;21.80;37.48;100040.13;5094378;28;20676;-86
2022/05/16 05:14:34;;;;;;;4.93;2.17;;;;;;;22.64;36.52;100028.16;5094688;28;20462;-87
2022/05/16 05:17:07;;;;;;;5.15;2.80;;;;;;;24.09;34.04;100042.94;5093445;28;20499;-86
2022/05/16 05:19:34;;;;;;;5.60;2.72;;;;;;;25.01;31.45;100019.69;5094583;28;20024;-87
2022/05/16 05:22:00;;;;;;;7.38;2.30;;;;;;;25.13;30.98;100039.81;5071579;28;20163;-87
2022/05/16 05:24:26;;;;;;;4.78;2.53;;;;;;;24.86;31.45;100038.06;5071286;28;20127;-87
2022/05/16 05:26:51;;;;;;;5.90;2.72;;;;;;;24.27;31.31;100040.31;5054923;28;20033;-87
2022/05/16 05:29:18;;;;;;;4.30;2.55;;;;;;;23.98;32.28;100044.97;5054664;28;20033;-87
2022/05/16 05:31:43;;;;;;;4.95;2.40;;;;;;;23.87;32.44;100041.50;5054850;28;20036;-87
2022/05/16 05:34:11;;;;;;;4.43;2.15;;;;;;;24.34;32.53;100036.06;5054532;28;20031;-87
2022/05/16 05:36:38;;;;;;;5.65;2.45;;;;;;;25.88;29.89;100032.94;5054626;28;20131;-87
2022/05/16 05:39:04;;;;;;;3.40;1.88;;;;;;;27.11;27.91;100035.84;5054641;28;20417;-87
2022/05/16 05:41:30;;;;;;;4.57;2.22;;;;;;;26.60;28.05;100029.81;5054621;28;20043;-89
2022/05/16 05:43:55;;;;;;;5.20;2.45;;;;;;;25.78;28.88;100026.88;5054514;28;20035;-87
2022/05/16 05:46:21;;;;;;;4.78;2.30;;;;;;;25.44;29.69;100031.34;5054421;28;20067;-87
2022/05/16 05:48:47;;;;;;;8.93;2.60;;;;;;;25.36;29.77;100043.63;5054407;28;20124;-88
2022/05/16 05:51:14;;;;;;;6.55;2.80;;;;;;;25.23;30.03;100045.88;5053637;28;20155;-88
2022/05/16 05:53:41;;;;;;;7.68;2.88;;;;;;;25.63;29.52;100037.28;5083411;28;20483;-87
2022/05/16 05:56:07;;;;;;;5.97;2.60;;;;;;;27.39;27.24;100049.69;5092496;28;20115;-88
2022/05/16 05:58:33;;;;;;;5.20;2.47;;;;;;;27.74;25.82;100045.75;5092586;28;20027;-88
2022/05/16 06:01:00;;;;;;;6.32;2.22;;;;;;;27.20;26.95;100032.16;5092567;28;20024;-88
2022/05/16 06:03:25;;;;;;;5.35;2.58;;;;;;;26.79;27.69;100034.81;5092261;28;20392;-87
2022/05/16 06:05:51;;;;;;;6.82;2.60;;;;;;;27.12;27.64;100032.16;5092405;28;20034;-88
2022/05/16 06:08:17;;;;;;;4.78;2.33;;;;;;;27.18;27.45;100041.31;5091985;28;20039;-85
2022/05/16 06:10:42;;;;;;;4.65;2.30;;;;;;;27.71;26.95;100050.56;5092434;28;20024;-88
2022/05/16 06:13:08;;;;;;;3.92;2.53;;;;;;;29.52;24.79;100043.84;5093672;28;20358;-88
2022/05/16 06:15:33;;;;;;;7.05;2.92;;;;;;;31.11;23.12;100044.84;5092183;28;20074;-86
2022/05/16 06:17:59;;;;;;;5.15;2.45;;;;;;;32.24;21.59;100046.34;5091911;28;20378;-88
2022/05/16 06:20:24;;;;;;;5.10;2.33;;;;;;;33.05;20.75;100034.69;5093104;28;20103;-87
2022/05/16 06:22:50;;;;;;;11.25;2.40;;;;;;;32.51;21.21;100031.91;5091848;28;20036;-88
2022/05/16 06:25:31;;;;;;;7.28;2.75;;;;;;;31.30;21.71;100023.47;5093418;28;20046;-86
2022/05/16 06:27:57;;;;;;;5.95;2.47;;;;;;;31.28;22.17;100025.56;5091965;28;20028;-86
2022/05/16 06:30:23;;;;;;;4.13;2.40;;;;;;;33.73;20.00;100041.41;5091602;28;20028;-86
2022/05/16 06:32:49;;;;;;;6.40;2.30;;;;;;;35.52;17.88;100030.47;5091670;28;20040;-86
2022/05/16 06:35:15;;;;;;;6.13;2.45;;;;;;;36.31;17.50;100040.34;5091328;28;20024;-87
2022/05/16 06:37:41;;;;;;;5.25;2.70;;;;;;;37.40;16.18;100030.03;5091838;28;20032;-87
2022/05/16 06:40:07;;;;;;;4.93;2.75;;;;;;;38.91;14.93;100016.09;5093083;28;20032;-87
2022/05/16 06:42:32;;;;;;;4.40;2.45;;;;;;;39.81;14.26;100030.44;5091220;28;20024;-86
2022/05/16 06:44:58;;;;;;;6.03;2.90;;;;;;;39.92;14.29;100032.22;5091487;28;20420;-87
2022/05/16 06:47:24;;;;;;;6.70;2.72;;;;;;;40.57;13.28;100027.72;5090978;28;20024;-87
2022/05/16 06:49:51;;;;;;;3.67;2.05;;;;;;;40.84;13.05;100037.78;5092665;28;20064;-86
2022/05/16 06:52:17;;;;;;;4.20;2.30;;;;;;;42.09;12.89;100034.34;5091303;28;20128;-87
2022/05/16 06:54:43;;;;;;;4.93;2.40;;;;;;;42.53;12.13;100036.63;5091478;28;20655;-86
2022/05/16 06:57:09;;;;;;;6.90;2.22;;;;;;;42.64;12.16;100040.22;5091456;28;20028;-86
2022/05/16 06:59:35;;;;;;;4.07;2.28;;;;;;;42.93;12.24;100035.00;5108175;28;20499;-86
2022/05/16 07:02:00;;;;;;;4.50;2.70;;;;;;;43.28;10.94;100034.97;5090633;28;20028;-86
2022/05/16 07:04:25;;;;;;;4.75;2.30;;;;;;;43.83;10.61;100035.88;5110697;28;20026;-88
2022/05/16 07:06:51;;;;;;;3.33;2.22;;;;;;;43.88;10.71;100043.28;5111808;28;20023;-88
2022/05/16 07:09:17;;;;;;;4.03;2.25;;;;;;;43.30;11.37;100035.50;5111457;28;20064;-87
2022/05/16 07:11:43;;;;;;;4.55;2.15;;;;;;;43.64;11.13;100037.59;5111532;28;20023;-87
2022/05/16 07:14:08;;;;;;;2.63;1.95;;;;;;;43.82;11.61;100027.91;5111427;28;20022;-87
2022/05/16 07:16:34;;;;;;;6.03;2.50;;;;;;;44.32;10.43;100029.56;5110447;28;20055;-88
2022/05/16 07:18:59;;;;;;;5.60;2.58;;;;;;;44.29;10.12;100032.03;5110696;28;20110;-88
2022/05/16 07:21:25;;;;;;;4.07;2.20;;;;;;;43.79;10.97;100023.00;5089429;28;20040;-88
2022/05/16 07:23:50;;;;;;;7.25;2.60;;;;;;;43.80;10.10;100021.88;5072719;28;20036;-88
2022/05/16 07:29:00;;;;;;;4.60;2.35;;;;;;;44.06;10.46;100019.84;5090226;28;20131;-86
2022/05/16 07:31:26;;;;;;;6.57;2.58;;;;;;;44.75;9.96;100021.53;5072115;28;20130;-87
2022/05/16 07:33:51;;;;;;;4.85;2.50;;;;;;;45.04;10.05;100018.78;5072748;28;20031;-88
2022/05/16 07:36:17;;;;;;;4.68;1.80;;;;;;;45.37;9.85;100015.41;5068994;28;20405;-88
2022/05/16 07:38:42;;;;;;;6.32;2.50;;;;;;;45.46;9.56;100011.75;5052472;28;20092;-88
2022/05/16 07:41:09;;;;;;;4.65;2.60;;;;;;;44.65;10.19;100015.31;5052526;28;20047;-88
2022/05/16 07:43:35;;;;;;;5.32;2.10;;;;;;;43.58;10.58;100014.84;5052179;28;20043;-89
2022/05/16 07:46:00;;;;;;;5.18;2.33;;;;;;;42.98;11.26;100011.13;5052456;28;20051;-87
2022/05/16 07:48:26;;;;;;;3.88;2.50;;;;;;;42.65;11.06;100007.09;5052138;28;20583;-87
2022/05/16 07:50:51;;;;;;;7.63;2.47;;;;;;;43.02;11.23;100008.66;5052471;28;20067;-87
2022/05/16 07:53:17;;;;;;;5.88;2.47;;;;;;;43.34;11.09;100009.16;5086937;28;20031;-87
2022/05/16 07:55:54;;;;;;;4.88;2.35;;;;;;;43.21;10.95;99997.97;5092688;28;20047;-87
2022/05/16 07:58:20;;;;;;;2.90;1.88;;;;;;;42.27;11.35;99992.81;5092524;28;20054;-87
2022/05/16 08:00:49;;;;;;;6.72;2.42;;;;;;;42.54;11.39;100008.97;5092598;28;20031;-87
2022/05/16 08:03:16;;;;;;;4.75;2.10;;;;;;;41.95;11.52;100001.22;5109530;28;20034;-87
2022/05/16 08:05:42;;;;;;;4.85;2.60;;;;;;;42.30;11.94;99995.00;5109650;28;20548;-86
2022/05/16 08:10:53;;;;;;;4.35;2.55;;;;;;;42.48;11.42;100001.03;5112359;28;20131;-86
2022/05/16 08:13:18;;;;;;;3.35;2.30;;;;;;;41.67;11.90;99998.91;5111888;28;20031;-88
2022/05/16 08:15:44;;;;;;;6.00;2.47;;;;;;;39.34;13.05;99994.66;5115409;28;20034;-88
2022/05/16 08:18:12;;;;;;;8.52;2.60;;;;;;;37.00;14.61;100000.06;5115027;28;20024;-87
2022/05/16 08:20:41;;;;;;;3.83;2.17;;;;;;;34.06;16.51;99985.59;5114749;28;20118;-88
2022/05/16 08:23:07;;;;;;;4.47;2.22;;;;;;;31.41;19.55;99989.81;5114817;28;20123;-87
2022/05/16 08:25:32;;;;;;;3.33;2.20;;;;;;;29.95;20.62;100003.75;5115687;27;20125;-87
2022/05/16 08:27:58;;;;;;;4.25;2.30;;;;;;;28.90;22.31;99991.28;5114588;28;20028;-87
2022/05/16 08:30:24;;;;;;;6.05;2.13;;;;;;;27.92;23.82;99991.97;5115978;28;20039;-87
2022/05/16 08:32:50;;;;;;;7.35;2.38;;;;;;;27.16;24.86;100012.09;5114546;28;20468;-87
2022/05/16 08:35:18;;;;;;;5.78;2.28;;;;;;;26.26;25.20;100000.50;5114360;28;20503;-87
2022/05/16 08:40:50;;;;;;;3.60;2.20;;;;;;;25.35;28.05;100009.13;5115805;28;20089;-86
2022/05/16 08:43:41;;;;;;;3.08;1.90;;;;;;;25.22;27.59;100012.22;5115572;28;20080;-87
2022/05/16 08:46:22;;;;;;;4.47;2.10;;;;;;;24.95;27.85;99999.00;5114304;28;20027;-87
2022/05/16 08:48:54;;;;;;;4.68;2.05;;;;;;;24.75;28.01;100001.84;5114110;28;20520;-87
2022/05/16 08:51:26;;;;;;;4.57;2.40;;;;;;;24.41;28.86;100011.53;5114147;28;20499;-87
2022/05/16 08:54:45;;;;;;;5.13;2.17;;;;;;;24.36;28.90;99998.66;5114281;28;20032;-87
2022/05/16 08:57:17;;;;;;;5.40;2.10;;;;;;;24.18;29.86;100006.59;5015806;28;20128;-88
2022/05/16 08:59:47;;;;;;;5.80;2.28;;;;;;;24.01;29.99;100002.09;5015561;28;20038;-88
2022/05/16 09:02:21;;;;;;;5.72;2.40;;;;;;;23.96;30.74;100002.53;5015745;28;20084;-87
2022/05/16 09:05:05;;;;;;;4.68;2.75;;;;;;;24.11;31.04;100002.88;5032277;28;20145;-88
2022/05/16 09:07:45;;;;;;;3.42;2.45;;;;;;;24.14;30.94;100003.44;5031996;28;20029;-88
2022/05/16 09:10:15;;;;;;;6.30;2.38;;;;;;;24.16;31.57;99997.94;5032239;28;20071;-88
2022/05/16 09:13:02;;;;;;;4.78;2.33;;;;;;;24.11;30.89;99997.56;5015379;28;20044;-87
2022/05/16 09:15:53;;;;;;;7.60;2.65;;;;;;;24.12;31.15;99994.75;5015194;28;20021;-88
2022/05/16 09:18:27;;;;;;;8.40;2.50;;;;;;;23.94;31.45;100001.88;5031660;28;20017;-87
2022/05/16 09:21:17;;;;;;;5.85;2.67;;;;;;;23.62;32.41;99996.94;5015303;28;20038;-88
2022/05/16 09:23:49;;;;;;;5.28;2.60;;;;;;;23.37;31.79;99998.44;5031723;28;20108;-88
2022/05/16 09:26:17;;;;;;;8.13;2.47;;;;;;;23.16;32.31;99995.97;5014343;28;20133;-87
2022/05/16 09:28:56;;;;;;;6.90;3.47;;;;;;;23.23;32.61;99998.91;5015233;28;20025;-88
2022/05/16 09:31:26;;;;;;;4.93;2.30;;;;;;;23.25;32.50;99995.09;5019446;28;20033;-87
2022/05/16 09:33:55;;;;;;;6.40;2.60;;;;;;;23.35;32.43;99998.59;5091859;28;20039;-87
2022/05/16 09:36:30;;;;;;;4.53;2.53;;;;;;;23.33;32.68;99999.72;5074532;28;20532;-87
2022/05/16 09:38:56;;;;;;;7.30;2.88;;;;;;;23.36;33.75;99989.63;5074809;28;20031;-88
2022/05/16 09:41:33;;;;;;;4.95;2.50;;;;;;;23.41;32.53;100000.66;5074662;28;20032;-87
2022/05/16 09:44:20;;;;;;;8.90;3.13;;;;;;;23.39;32.54;99997.31;5074673;28;20489;-87
2022/05/16 09:46:46;;;;;;;5.00;2.42;;;;;;;23.31;32.57;99983.91;5074576;28;20127;-88
2022/05/16 09:49:25;;;;;;;6.50;2.38;;;;;;;23.33;33.00;99987.25;5074471;28;20509;-86
2022/05/16 09:51:55;;;;;;;4.05;2.20;;;;;;;23.28;33.19;99972.72;5074554;28;20032;-85
2022/05/16 09:54:35;;;;;;;7.70;2.80;;;;;;;23.30;32.57;99984.91;5074426;28;20036;-85
2022/05/16 09:57:03;;;;;;;;;;;;;;;23.31;32.37;99981.25;5091809;28;20735;-86
2022/05/16 09:59:51;;;;;;;3.60;2.17;;;;;;;23.47;33.31;99987.75;5050605;28;19934;-85
2022/05/16 10:02:29;;;;;;;4.78;2.10;;;;;;;23.64;33.24;99979.88;5034468;28;20443;-85
2022/05/16 10:05:24;;;;;;;6.00;1.95;;;;;;;23.83;32.83;99978.94;5055108;28;20067;-86
2022/05/16 10:08:03;;;;;;;3.97;2.20;;;;;;;23.94;32.36;99975.25;5091125;28;20062;-86
2022/05/16 10:10:42;;;;;;;6.80;2.50;;;;;;;23.94;32.08;99979.75;5074125;28;20048;-85
2022/05/16 10:13:07;;;;;;;3.80;1.85;;;;;;;23.86;33.08;99970.69;5074206;28;20024;-86
2022/05/16 10:15:36;;;;;;;3.53;2.35;;;;;;;23.80;32.01;99965.09;5090792;28;20097;-86
2022/05/16 10:18:05;;;;;;;2.72;2.10;;;;;;;23.74;32.58;99979.84;5090893;28;20036;-85
2022/05/16 10:20:35;;;;;;;5.18;2.13;;;;;;;23.85;32.99;99981.44;5073804;28;20043;-86
2022/05/16 10:23:03;;;;;;;;;;;;;;;23.98;32.51;99973.97;5074360;28;20063;-86
2022/05/16 10:25:35;;;;;;;5.53;1.98;;;;;;;24.04;32.31;99962.72;5073556;28;19908;-85
2022/05/16 10:28:05;;;;;;;6.15;2.00;;;;;;;24.08;32.18;99964.09;5090809;28;20038;-85
2022/05/16 10:33:24;;;;;;;6.47;2.33;;;;;;;24.07;32.37;99962.44;5091949;28;20039;-85
2022/05/16 10:33:27;;;;;;;3.88;2.13;;;;;;;24.11;32.69;99971.78;5113456;28;20114;-85
2022/05/16 10:36:08;;;;;;;5.00;1.95;;;;;;;24.08;32.06;99957.94;5112123;28;20076;-85
2022/05/16 10:38:55;;;;;;;3.67;1.95;;;;;;;24.09;31.39;99954.28;5113499;28;20085;-85
2022/05/16 10:41:27;;;;;;;4.00;2.00;;;;;;;24.02;30.07;99946.09;5112057;28;20031;-85
2022/05/16 10:44:38;;;;;;;4.43;2.45;;;;;;;24.04;29.83;99959.22;5113517;27;20028;-85
2022/05/16 10:47:23;;;;;;;3.67;1.73;;;;;;;23.91;29.91;99951.59;5113548;28;20102;-86
2022/05/16 10:50:01;;;;;;;4.75;3.00;;;;;;;23.69;29.75;99930.75;5113510;28;20108;-85
2022/05/16 10:52:32;;;;;;;2.65;1.95;;;;;;;23.79;32.10;99955.47;5111657;28;20020;-85
2022/05/16 10:54:58;;;;;;;2.78;1.77;;;;;;;23.72;30.56;99935.75;5111783;28;20483;-85
2022/05/16 10:57:42;;;;;;;3.58;1.77;;;;;;;23.78;30.74;99953.78;5113071;28;20039;-85
2022/05/16 11:00:23;;;;;;;3.80;1.77;;;;;;;23.78;29.95;99940.50;5111902;28;20034;-85
2022/05/16 11:02:52;;;;;;;4.25;1.80;;;;;;;23.82;30.38;99941.88;5111566;28;20020;-85
2022/05/16 11:05:39;;;;;;;2.03;1.80;;;;;;;23.87;30.84;99936.94;5111787;28;20028;-85
2022/05/16 11:08:38;;;;;;;2.47;1.83;;;;;;;23.93;30.84;99928.34;5112952;28;20054;-86
2022/05/16 11:11:08;;;;;;;4.45;1.83;;;;;;;23.86;30.27;99909.50;5113080;28;20036;-85
2022/05/16 11:13:48;;;;;;;4.50;2.00;;;;;;;23.90;30.56;99926.84;5112716;28;20479;-86
2022/05/16 11:16:13;;;;;;;;;;;;;;;23.90;31.20;99926.84;5111927;28;20480;-86
2022/05/16 11:18:50;;;;;;;4.70;2.20;;;;;;;23.85;30.88;99922.94;5112587;28;20010;-85
2022/05/16 11:21:34;;;;;;;5.65;2.58;;;;;;;23.63;30.81;99932.13;5112944;28;20273;-86
2022/05/16 11:24:37;;;;;;;2.95;1.95;;;;;;;23.49;31.59;99922.84;5111469;28;20082;-86
2022/05/16 11:27:31;;;;;;;4.55;2.20;;;;;;;23.45;32.01;99915.31;5112536;28;20031;-86
2022/05/16 11:30:08;;;;;;;3.03;2.05;;;;;;;23.23;31.65;99903.25;5111526;28;20055;-86
2022/05/16 11:32:40;;;;;;;6.00;2.30;;;;;;;23.12;29.52;99923.69;5112171;28;20472;-85
2022/05/16 11:35:22;;;;;;;3.53;1.92;;;;;;;23.07;30.22;99914.47;5112482;28;20027;-86
2022/05/16 11:38:07;;;;;;;4.82;2.40;;;;;;;23.01;30.71;99920.38;5111143;28;20034;-86
2022/05/16 11:40:38;;;;;;;4.30;2.50;;;;;;;22.90;31.45;99921.38;5110934;28;20492;-86
2022/05/16 11:43:20;;;;;;;4.68;2.38;;;;;;;22.71;31.80;99897.50;5110810;28;20034;-86
2022/05/16 11:46:07;;;;;;;2.97;2.03;;;;;;;22.81;34.41;99914.25;5110615;28;20027;-86
2022/05/16 11:48:51;;;;;;;4.35;2.13;;;;;;;22.83;32.31;99909.63;5110167;28;20131;-85
2022/05/16 11:51:21;;;;;;;3.92;2.00;;;;;;;22.76;30.14;99893.44;5110919;28;20027;-86
2022/05/16 11:53:57;;;;;;;6.47;2.38;;;;;;;22.87;30.45;99903.88;5110723;28;20023;-86
2022/05/16 12:02:34;;;;;;;3.38;1.80;;;;;;;22.73;31.99;99891.06;5112403;28;20115;-86
2022/05/16 12:05:02;;;;;;;4.18;2.30;;;;;;;22.66;31.66;99874.03;5110905;28;20392;-85
2022/05/16 12:07:44;;;;;;;4.90;2.30;;;;;;;22.74;31.50;99889.25;5111026;28;20023;-86